sensor_id;sensor_type;location;lat;lon;timestamp;pressure;altitude;pressure_sealevel;temperature;humidity
14757;BME280;62446;53.214;10.398;2022-11-11T03:21:01;102339.69;;;8.80;71.81
14757;BME280;62446;53.214;10.398;2022-11-11T03:24:47;102336.25;;;9.24;69.67
14757;BME280;62446;53.214;10.398;2022-11-11T03:28:27;102342.19;;;9.51;68.32
14757;BME280;62446;53.214;10.398;2022-11-11T19:55:57;102757.75;;;4.70;87.32
14757;BME280;62446;53.214;10.398;2022-11-11T19:59:20;102749.97;;;4.95;84.79
14757;BME280;62446;53.214;10.398;2022-11-11T20:02:42;102756.72;;;5.00;82.54
14757;BME280;62446;53.214;10.398;2022-11-11T20:06:06;102758.03;;;4.96;83.56
14757;BME280;62446;53.214;10.398;2022-11-11T20:09:38;102764.94;;;4.91;83.02
14757;BME280;62446;53.214;10.398;2022-11-11T20:13:02;102775.56;;;4.94;83.23
14757;BME280;62446;53.214;10.398;2022-11-11T20:16:25;102771.56;;;4.78;83.53
14757;BME280;62446;53.214;10.398;2022-11-11T20:19:47;102780.50;;;4.80;82.76
14757;BME280;62446;53.214;10.398;2022-11-11T20:23:09;102781.06;;;4.55;83.36
14757;BME280;62446;53.214;10.398;2022-11-11T20:26:31;102777.31;;;4.75;81.40
14757;BME280;62446;53.214;10.398;2022-11-11T20:29:55;102776.47;;;4.55;82.97
14757;BME280;62446;53.214;10.398;2022-11-11T20:33:17;102778.34;;;4.45;82.07
14757;BME280;62446;53.214;10.398;2022-11-11T20:36:39;102778.03;;;4.38;83.33
14757;BME280;62446;53.214;10.398;2022-11-11T20:40:01;102787.38;;;4.45;82.16
14757;BME280;62446;53.214;10.398;2022-11-11T20:43:23;102787.41;;;4.55;81.62
14757;BME280;62446;53.214;10.398;2022-11-11T20:46:47;102794.56;;;4.56;82.28
14757;BME280;62446;53.214;10.398;2022-11-11T20:50:10;102793.16;;;4.52;81.18
14757;BME280;62446;53.214;10.398;2022-11-11T20:53:32;102796.44;;;4.56;80.91
14757;BME280;62446;53.214;10.398;2022-11-11T20:56:55;102790.81;;;4.47;81.24
14757;BME280;62446;53.214;10.398;2022-11-11T21:00:17;102790.00;;;4.57;80.15
14757;BME280;62446;53.214;10.398;2022-11-11T21:03:42;102785.09;;;4.51;80.49
14757;BME280;62446;53.214;10.398;2022-11-11T21:07:04;102791.97;;;4.35;80.27
14757;BME280;62446;53.214;10.398;2022-11-11T21:10:26;102794.00;;;4.33;80.90
14757;BME280;62446;53.214;10.398;2022-11-11T21:13:52;102798.00;;;4.29;81.13
14757;BME280;62446;53.214;10.398;2022-11-11T21:17:15;102796.84;;;4.32;80.55
14757;BME280;62446;53.214;10.398;2022-11-11T21:20:38;102802.31;;;4.22;80.89
14757;BME280;62446;53.214;10.398;2022-11-11T21:24:02;102797.28;;;4.17;81.25
14757;BME280;62446;53.214;10.398;2022-11-11T21:27:25;102798.41;;;4.15;81.20
14757;BME280;62446;53.214;10.398;2022-11-11T21:30:57;102794.94;;;4.12;81.57
14757;BME280;62446;53.214;10.398;2022-11-11T21:34:19;102792.25;;;4.22;80.03
14757;BME280;62446;53.214;10.398;2022-11-11T21:37:42;102797.41;;;4.16;80.07
14757;BME280;62446;53.214;10.398;2022-11-11T21:41:06;102804.28;;;4.00;80.00
14757;BME280;62446;53.214;10.398;2022-11-11T21:44:29;102801.63;;;3.89;80.58
14757;BME280;62446;53.214;10.398;2022-11-11T21:47:51;102802.81;;;3.96;80.69
14757;BME280;62446;53.214;10.398;2022-11-11T21:51:15;102810.00;;;3.97;81.16
14757;BME280;62446;53.214;10.398;2022-11-11T21:54:41;102800.53;;;4.01;79.94
14757;BME280;62446;53.214;10.398;2022-11-11T21:58:03;102804.81;;;3.94;79.78
14757;BME280;62446;53.214;10.398;2022-11-11T22:01:26;102812.03;;;4.05;79.91
14757;BME280;62446;53.214;10.398;2022-11-11T22:04:50;102812.28;;;3.92;79.58
14757;BME280;62446;53.214;10.398;2022-11-11T22:08:12;102823.47;;;3.89;79.66
14757;BME280;62446;53.214;10.398;2022-11-11T22:11:36;102827.66;;;3.93;79.81
14757;BME280;62446;53.214;10.398;2022-11-11T22:14:59;102819.47;;;3.93;78.44
14757;BME280;62446;53.214;10.398;2022-11-11T22:18:21;102838.94;;;3.69;80.08
14757;BME280;62446;53.214;10.398;2022-11-11T22:21:44;102838.47;;;3.64;80.13
14757;BME280;62446;53.214;10.398;2022-11-11T22:25:08;102834.47;;;3.68;81.29
14757;BME280;62446;53.214;10.398;2022-11-11T22:28:33;102844.88;;;3.53;80.45
14757;BME280;62446;53.214;10.398;2022-11-11T22:31:59;102844.81;;;3.43;80.95
14757;BME280;62446;53.214;10.398;2022-11-11T22:35:22;102840.81;;;3.47;81.80
14757;BME280;62446;53.214;10.398;2022-11-11T22:38:45;102845.66;;;3.43;81.34
14757;BME280;62446;53.214;10.398;2022-11-11T22:42:07;102842.50;;;3.69;78.93
14757;BME280;62446;53.214;10.398;2022-11-11T22:45:31;102851.59;;;3.49;80.09
14757;BME280;62446;53.214;10.398;2022-11-11T22:48:55;102852.88;;;3.23;80.35
14757;BME280;62446;53.214;10.398;2022-11-11T22:52:17;102856.09;;;3.17;80.91
14757;BME280;62446;53.214;10.398;2022-11-11T22:55:40;102862.75;;;3.24;80.72
14757;BME280;62446;53.214;10.398;2022-11-11T22:59:02;102859.03;;;3.25;80.63
14757;BME280;62446;53.214;10.398;2022-11-11T23:02:26;102858.72;;;3.19;80.09
14757;BME280;62446;53.214;10.398;2022-11-11T23:05:48;102868.56;;;3.31;78.57
14757;BME280;62446;53.214;10.398;2022-11-11T23:09:11;102865.94;;;3.08;80.19
14757;BME280;62446;53.214;10.398;2022-11-11T23:12:33;102868.66;;;3.08;79.93
14757;BME280;62446;53.214;10.398;2022-11-11T23:15:55;102864.69;;;3.13;80.14
14757;BME280;62446;53.214;10.398;2022-11-11T23:19:19;102867.09;;;3.06;80.84
14757;BME280;62446;53.214;10.398;2022-11-11T23:22:48;102868.09;;;3.05;79.29
14757;BME280;62446;53.214;10.398;2022-11-11T23:26:12;102868.44;;;3.12;79.01
14757;BME280;62446;53.214;10.398;2022-11-11T23:29:35;102864.78;;;3.22;78.72
14757;BME280;62446;53.214;10.398;2022-11-11T23:32:57;102866.09;;;3.28;77.83
14757;BME280;62446;53.214;10.398;2022-11-11T23:36:22;102869.69;;;3.29;76.85
14757;BME280;62446;53.214;10.398;2022-11-11T23:39:45;102879.06;;;3.15;76.94
14757;BME280;62446;53.214;10.398;2022-11-11T23:43:07;102879.06;;;3.15;77.05
14757;BME280;62446;53.214;10.398;2022-11-11T23:46:29;102877.41;;;3.23;76.60
14757;BME280;62446;53.214;10.398;2022-11-11T23:49:51;102884.25;;;3.18;76.39
14757;BME280;62446;53.214;10.398;2022-11-11T23:53:15;102884.53;;;3.15;76.29
14757;BME280;62446;53.214;10.398;2022-11-11T23:56:38;102882.53;;;3.17;75.82
